Time;durP1;ratioP1;P1;durP2;ratioP2;P2;SDS_P1;SDS_P2;PMS_P1;PMS_P2;Temp;Humidity;BMP_temperature;BMP_pressure;BME280_temperature;BME280_humidity;BME280_pressure;Samples;Min_cycle;Max_cycle;Signal;HPM_P1;HPM_P2
2023/01/01 00:02:02;;;;;;;35.40;27.00;;;8.90;99.90;;;;;;6185274;23;20211;-77
2023/01/01 00:04:31;;;;;;;28.87;22.47;;;8.90;99.90;;;;;;6185967;23;20192;-77
2023/01/01 00:07:01;;;;;;;30.23;23.47;;;8.80;99.90;;;;;;6185872;23;20205;-79
2023/01/01 00:12:16;;;;;;;22.43;18.13;;;8.80;99.90;;;;;;6186528;23;20556;-79
2023/01/01 00:14:44;;;;;;;22.87;16.97;;;8.80;99.90;;;;;;6188284;23;20177;-79
2023/01/01 00:17:14;;;;;;;21.23;14.97;;;8.80;99.90;;;;;;6187173;23;20564;-76
2023/01/01 00:19:44;;;;;;;21.07;16.47;;;8.90;99.90;;;;;;6186174;23;20268;-76
2023/01/01 00:22:12;;;;;;;18.87;15.27;;;8.80;99.90;;;;;;6185813;23;20201;-77
2023/01/01 00:25:00;;;;;;;19.67;15.80;;;8.90;99.90;;;;;;6185588;23;20203;-77
2023/01/01 00:27:29;;;;;;;19.73;14.70;;;8.90;99.90;;;;;;6185391;23;20177;-77
2023/01/01 00:29:57;;;;;;;19.77;14.40;;;8.90;99.90;;;;;;6185892;23;20240;-78
2023/01/01 00:32:26;;;;;;;19.23;14.77;;;8.80;99.90;;;;;;6185574;23;20212;-78
2023/01/01 00:34:54;;;;;;;19.87;15.27;;;8.80;99.90;;;;;;6185456;23;20195;-79
2023/01/01 00:37:23;;;;;;;22.03;16.20;;;8.80;99.90;;;;;;6186381;23;20192;-78
2023/01/01 00:39:51;;;;;;;21.17;16.60;;;8.80;99.90;;;;;;6185327;23;20622;-80
2023/01/01 00:42:19;;;;;;;21.27;16.27;;;8.80;99.90;;;;;;6185995;23;20187;-76
2023/01/01 00:44:47;;;;;;;20.23;15.87;;;8.60;99.90;;;;;;6186643;23;20185;-77
2023/01/01 00:47:16;;;;;;;20.97;15.70;;;8.50;99.90;;;;;;6186225;23;20181;-77
2023/01/01 00:49:45;;;;;;;21.97;15.67;;;8.50;99.90;;;;;;6185844;23;20511;-76
2023/01/01 00:52:13;;;;;;;19.83;15.13;;;8.50;99.90;;;;;;6185851;23;20200;-75
2023/01/01 00:54:41;;;;;;;20.50;16.00;;;8.40;99.90;;;;;;6185477;23;20665;-76
2023/01/01 00:57:10;;;;;;;22.83;15.57;;;8.30;99.90;;;;;;6185970;23;20219;-77
2023/01/01 00:59:38;;;;;;;20.40;15.90;;;8.20;99.90;;;;;;6186197;23;20212;-77
2023/01/01 01:02:06;;;;;;;28.73;21.67;;;8.10;99.90;;;;;;6186853;23;20200;-77
2023/01/01 01:04:35;;;;;;;25.23;19.60;;;8.10;99.90;;;;;;6187265;23;20436;-78
2023/01/01 01:07:05;;;;;;;22.60;18.27;;;8.00;99.90;;;;;;6186712;23;20183;-76
2023/01/01 01:09:33;;;;;;;23.60;17.13;;;8.00;99.90;;;;;;6186663;23;20189;-75
2023/01/01 01:12:01;;;;;;;26.83;20.33;;;8.00;99.90;;;;;;6186400;23;20217;-77
2023/01/01 01:14:46;;;;;;;28.27;21.27;;;8.00;99.90;;;;;;6187485;23;20177;-77
2023/01/01 01:17:14;;;;;;;31.90;21.53;;;8.00;99.90;;;;;;6186360;23;20181;-77
2023/01/01 01:19:42;;;;;;;29.90;22.47;;;8.00;99.90;;;;;;6186318;23;20212;-77
2023/01/01 01:22:12;;;;;;;32.47;23.57;;;8.20;99.90;;;;;;6185729;23;20222;-78
2023/01/01 01:24:40;;;;;;;28.97;23.23;;;8.20;99.90;;;;;;6186872;23;20181;-76
2023/01/01 01:27:08;;;;;;;29.90;22.60;;;8.20;99.90;;;;;;6185790;23;20180;-78
2023/01/01 01:29:37;;;;;;;29.67;21.73;;;8.20;99.90;;;;;;6185450;23;20269;-76
2023/01/01 01:32:06;;;;;;;31.40;21.83;;;8.20;99.90;;;;;;6185723;23;20708;-76
2023/01/01 01:34:34;;;;;;;28.27;20.03;;;8.30;99.90;;;;;;6185655;23;20188;-76
2023/01/01 01:37:02;;;;;;;25.17;19.27;;;8.60;99.90;;;;;;6186042;23;20649;-75
2023/01/01 01:39:32;;;;;;;28.03;19.33;;;8.50;99.90;;;;;;6185172;23;20211;-78
2023/01/01 01:42:02;;;;;;;22.57;18.03;;;8.70;99.90;;;;;;6185994;23;20653;-78
2023/01/01 01:44:54;;;;;;;21.23;16.20;;;8.80;99.90;;;;;;6187221;23;20204;-76
2023/01/01 01:47:28;;;;;;;24.57;17.07;;;8.80;99.90;;;;;;6189232;23;20181;-76
2023/01/01 01:50:02;;;;;;;26.17;17.47;;;8.80;99.90;;;;;;6186880;23;20548;-77
2023/01/01 01:52:36;;;;;;;22.47;16.10;;;8.80;99.90;;;;;;6186501;23;20236;-78
2023/01/01 01:55:08;;;;;;;24.20;17.07;;;8.90;99.90;;;;;;6186457;23;20169;-77
2023/01/01 01:57:38;;;;;;;22.10;17.00;;;8.80;99.90;;;;;;6193320;23;20184;-78
2023/01/01 02:00:08;;;;;;;25.83;19.40;;;8.70;99.90;;;;;;6209918;23;20171;-79
2023/01/01 02:02:43;;;;;;;26.93;19.40;;;8.70;99.90;;;;;;6209283;23;20211;-78
2023/01/01 02:05:13;;;;;;;31.73;23.03;;;8.50;99.90;;;;;;6199260;23;20195;-76
2023/01/01 02:07:41;;;;;;;33.03;25.40;;;8.40;99.90;;;;;;6186279;23;20576;-78
2023/01/01 02:10:11;;;;;;;39.13;26.80;;;8.30;99.90;;;;;;6186049;23;20216;-77
2023/01/01 02:12:40;;;;;;;36.43;27.97;;;8.30;99.90;;;;;;6185402;23;20177;-80
2023/01/01 02:15:09;;;;;;;49.77;38.50;;;8.10;99.90;;;;;;6185951;23;20510;-79
2023/01/01 02:17:44;;;;;;;52.00;40.37;;;8.00;99.90;;;;;;6194937;23;20187;-79
2023/01/01 02:20:23;;;;;;;48.10;37.90;;;7.70;99.90;;;;;;6200935;23;20174;-79
2023/01/01 02:23:23;;;;;;;53.90;41.47;;;7.70;99.90;;;;;;6197142;23;20278;-77
2023/01/01 02:26:07;;;;;;;59.23;45.33;;;7.60;99.90;;;;;;6147905;23;20177;-76
2023/01/01 02:28:51;;;;;;;54.13;40.20;;;7.50;99.90;;;;;;6208653;23;20181;-76
2023/01/01 02:31:24;;;;;;;56.10;42.90;;;7.30;99.90;;;;;;6186589;23;20224;-77
2023/01/01 02:33:56;;;;;;;56.53;43.73;;;7.20;99.90;;;;;;6185518;23;20183;-77
2023/01/01 02:36:26;;;;;;;64.33;46.57;;;7.10;99.90;;;;;;6185094;23;20172;-77
2023/01/01 02:38:58;;;;;;;61.60;47.40;;;7.10;99.90;;;;;;6185921;23;20169;-78
2023/01/01 02:41:30;;;;;;;63.33;48.17;;;7.00;99.90;;;;;;6185723;23;20185;-78
2023/01/01 02:43:59;;;;;;;57.87;44.63;;;6.90;99.90;;;;;;6185554;23;20181;-77
2023/01/01 02:46:32;;;;;;;63.30;44.40;;;6.80;99.90;;;;;;6185340;23;20169;-78
2023/01/01 02:49:01;;;;;;;66.27;45.80;;;6.90;99.90;;;;;;6185601;23;20161;-76
2023/01/01 02:51:48;;;;;;;58.83;44.97;;;7.00;99.90;;;;;;6185351;23;20177;-77
2023/01/01 02:54:25;;;;;;;61.40;45.47;;;6.90;99.90;;;;;;6185711;23;20181;-77
2023/01/01 02:57:04;;;;;;;55.20;42.83;;;6.90;99.90;;;;;;6185854;23;20193;-75
2023/01/01 03:03:11;;;;;;;63.17;49.23;;;6.70;99.90;;;;;;6124762;23;20190;-76
2023/01/01 03:08:40;;;;;;;59.33;43.70;;;6.60;99.90;;;;;;6149142;23;20201;-77
2023/01/01 03:11:12;;;;;;;60.23;46.50;;;6.50;99.90;;;;;;6188201;23;20252;-76
2023/01/01 03:13:47;;;;;;;62.33;45.90;;;6.50;99.90;;;;;;6192338;23;20300;-76
2023/01/01 03:16:22;;;;;;;72.43;52.00;;;6.40;99.90;;;;;;6202975;23;20637;-76
2023/01/01 03:19:10;;;;;;;67.53;50.17;;;6.30;99.90;;;;;;6202577;23;20200;-78
2023/01/01 03:21:42;;;;;;;58.03;45.17;;;6.30;99.90;;;;;;6197346;23;20248;-76
2023/01/01 03:24:17;;;;;;;66.27;48.77;;;6.30;99.90;;;;;;6195927;23;20165;-77
2023/01/01 03:26:50;;;;;;;46.93;35.73;;;6.20;99.90;;;;;;6187914;23;20183;-76
2023/01/01 03:29:19;;;;;;;44.53;33.77;;;6.30;99.90;;;;;;6188009;23;20200;-77
2023/01/01 03:31:52;;;;;;;32.67;24.80;;;6.50;99.90;;;;;;6187068;23;20173;-76
2023/01/01 03:34:25;;;;;;;30.40;23.53;;;6.50;99.90;;;;;;6187547;23;20240;-78
2023/01/01 03:36:57;;;;;;;28.47;20.57;;;6.70;99.90;;;;;;6187189;23;20255;-77
2023/01/01 03:39:34;;;;;;;23.93;19.47;;;6.70;99.90;;;;;;6187178;23;20171;-79
2023/01/01 03:42:12;;;;;;;22.37;17.47;;;6.70;99.90;;;;;;6187177;23;20274;-76
2023/01/01 03:44:45;;;;;;;23.20;16.23;;;6.80;99.90;;;;;;6191432;23;20162;-75
2023/01/01 03:47:15;;;;;;;21.20;14.80;;;6.90;99.90;;;;;;6187459;23;20188;-77
2023/01/01 03:49:45;;;;;;;20.30;14.73;;;6.80;99.90;;;;;;6186989;23;20184;-77
2023/01/01 03:52:25;;;;;;;18.97;14.07;;;6.80;99.90;;;;;;6190098;23;20193;-77
2023/01/01 03:55:01;;;;;;;23.77;17.40;;;6.80;99.90;;;;;;6186906;23;20205;-77
2023/01/01 03:57:38;;;;;;;20.67;15.57;;;6.80;99.90;;;;;;6186729;23;20206;-78
2023/01/01 04:00:10;;;;;;;22.33;16.47;;;6.70;99.90;;;;;;6187157;23;20216;-77
2023/01/01 04:02:48;;;;;;;21.63;16.77;;;6.70;99.90;;;;;;6186540;23;20259;-77
2023/01/01 04:05:18;;;;;;;20.80;15.83;;;6.60;99.90;;;;;;6186558;23;20188;-77
2023/01/01 04:07:47;;;;;;;23.07;15.47;;;6.50;99.90;;;;;;6185778;23;20651;-75
2023/01/01 04:10:18;;;;;;;24.53;16.27;;;6.40;99.90;;;;;;6186526;23;20177;-76
2023/01/01 04:12:48;;;;;;;21.03;15.53;;;6.50;99.90;;;;;;6185589;23;20505;-77
2023/01/01 04:15:16;;;;;;;22.23;16.33;;;6.40;99.90;;;;;;6186930;23;20256;-76
2023/01/01 04:17:46;;;;;;;22.83;17.03;;;6.40;99.90;;;;;;6186691;23;20181;-75
2023/01/01 04:20:15;;;;;;;23.93;18.13;;;6.40;99.90;;;;;;6186619;23;20504;-76
2023/01/01 04:22:43;;;;;;;22.43;16.63;;;6.30;99.90;;;;;;6185854;23;20650;-76
2023/01/01 04:25:16;;;;;;;20.23;15.27;;;6.30;99.90;;;;;;6186182;23;20173;-75
2023/01/01 04:27:44;;;;;;;18.67;14.00;;;6.40;99.90;;;;;;6186053;23;20208;-77
2023/01/01 04:30:14;;;;;;;18.63;13.90;;;6.40;99.90;;;;;;6185985;23;20187;-77
2023/01/01 04:32:42;;;;;;;19.27;14.70;;;6.40;99.90;;;;;;6185358;23;20259;-77
2023/01/01 04:35:13;;;;;;;18.40;13.63;;;6.40;99.90;;;;;;6185850;23;20264;-77
2023/01/01 04:37:43;;;;;;;17.37;11.73;;;6.30;99.90;;;;;;6185253;23;20184;-77
2023/01/01 04:40:12;;;;;;;15.73;12.20;;;6.40;99.90;;;;;;6185570;23;20177;-77
2023/01/01 04:42:42;;;;;;;15.70;12.10;;;6.50;99.90;;;;;;6186047;23;20229;-76
2023/01/01 04:45:13;;;;;;;14.20;10.50;;;6.50;99.90;;;;;;6185812;23;20199;-77
2023/01/01 04:47:42;;;;;;;12.47;9.87;;;6.60;99.90;;;;;;6185395;23;20224;-77
2023/01/01 04:50:11;;;;;;;11.47;9.40;;;6.60;99.90;;;;;;6185911;23;20256;-76
2023/01/01 04:52:40;;;;;;;14.03;10.07;;;6.70;99.90;;;;;;6185431;23;20200;-76
2023/01/01 04:55:08;;;;;;;13.10;9.57;;;6.90;99.90;;;;;;6185545;23;20935;-77
2023/01/01 04:57:37;;;;;;;12.17;9.17;;;6.90;99.90;;;;;;6185307;23;20181;-77
2023/01/01 05:00:06;;;;;;;12.87;8.70;;;6.90;99.90;;;;;;6185403;23;20231;-76
2023/01/01 05:02:34;;;;;;;12.30;9.27;;;6.90;99.90;;;;;;6184965;23;20200;-76
2023/01/01 05:05:02;;;;;;;11.60;9.53;;;6.90;99.90;;;;;;6185159;23;20185;-76
2023/01/01 05:07:33;;;;;;;12.63;9.70;;;6.80;99.90;;;;;;6184847;23;20195;-76
2023/01/01 05:10:05;;;;;;;12.57;9.53;;;6.80;99.90;;;;;;6185404;23;20181;-76
2023/01/01 05:12:33;;;;;;;12.30;9.50;;;6.80;99.90;;;;;;6185582;23;20210;-77
2023/01/01 05:15:01;;;;;;;12.70;9.70;;;6.60;99.90;;;;;;6185109;23;20177;-77
2023/01/01 05:17:29;;;;;;;12.67;9.43;;;6.70;99.90;;;;;;6185645;23;20177;-75
2023/01/01 05:19:58;;;;;;;12.70;9.30;;;6.50;99.90;;;;;;6185682;23;20181;-76
2023/01/01 05:22:26;;;;;;;14.07;9.17;;;6.40;99.90;;;;;;6184361;23;20207;-77
2023/01/01 05:24:56;;;;;;;11.20;9.50;;;6.40;99.90;;;;;;6184196;23;20195;-76
2023/01/01 05:27:24;;;;;;;11.30;8.87;;;6.50;99.90;;;;;;6185163;23;20201;-77
2023/01/01 05:29:52;;;;;;;13.00;8.83;;;6.50;99.90;;;;;;6185058;23;20259;-77
2023/01/01 05:32:20;;;;;;;11.70;8.43;;;6.50;99.90;;;;;;6184442;23;20255;-76
2023/01/01 05:34:48;;;;;;;11.23;7.90;;;6.60;99.90;;;;;;6184800;23;20179;-77
2023/01/01 05:37:16;;;;;;;11.63;8.53;;;6.80;99.90;;;;;;6185352;23;20187;-76
2023/01/01 05:39:44;;;;;;;11.67;8.07;;;6.80;99.90;;;;;;6184485;23;20549;-77
2023/01/01 05:42:14;;;;;;;10.40;7.70;;;6.90;99.90;;;;;;6186668;23;20187;-76
2023/01/01 05:44:42;;;;;;;10.97;8.03;;;7.00;99.90;;;;;;6185083;23;20201;-76
2023/01/01 05:47:11;;;;;;;12.00;7.77;;;7.00;99.90;;;;;;6185462;23;20177;-77
2023/01/01 05:49:39;;;;;;;10.57;8.00;;;7.10;99.90;;;;;;6185249;23;20184;-76
2023/01/01 05:52:07;;;;;;;10.53;7.33;;;7.20;99.90;;;;;;6184550;23;20208;-77
2023/01/01 05:54:35;;;;;;;9.57;7.00;;;7.10;99.90;;;;;;6185399;23;20208;-76
2023/01/01 05:57:03;;;;;;;12.03;7.43;;;7.20;99.90;;;;;;6185076;23;20185;-76
2023/01/01 05:59:33;;;;;;;9.20;6.97;;;7.20;99.90;;;;;;6184798;23;20192;-76
2023/01/01 06:02:01;;;;;;;9.90;7.53;;;7.20;99.90;;;;;;6185055;23;20236;-76
2023/01/01 06:04:29;;;;;;;11.00;6.87;;;7.20;99.90;;;;;;6185458;23;20200;-76
2023/01/01 06:06:57;;;;;;;11.10;7.47;;;7.20;99.90;;;;;;6185164;23;20176;-77
2023/01/01 06:09:27;;;;;;;10.77;7.13;;;7.20;99.90;;;;;;6184314;23;20183;-77
2023/01/01 06:11:55;;;;;;;10.07;7.13;;;7.20;99.90;;;;;;6185224;23;20510;-77
2023/01/01 06:14:23;;;;;;;9.63;6.93;;;7.10;99.90;;;;;;6185027;23;20659;-77
2023/01/01 06:16:53;;;;;;;9.70;7.00;;;7.00;99.90;;;;;;6185304;23;20180;-77
2023/01/01 06:19:21;;;;;;;10.27;7.17;;;7.00;99.90;;;;;;6185174;23;20243;-76
2023/01/01 06:21:49;;;;;;;11.20;7.20;;;7.00;99.90;;;;;;6185296;23;20181;-79
2023/01/01 06:24:17;;;;;;;10.00;7.20;;;6.90;99.90;;;;;;6185262;23;20695;-79
2023/01/01 06:26:45;;;;;;;9.50;7.10;;;7.00;99.90;;;;;;6187142;23;20184;-77
2023/01/01 06:29:13;;;;;;;10.70;7.47;;;7.00;99.90;;;;;;6198330;23;20260;-77
2023/01/01 06:31:41;;;;;;;9.70;7.43;;;7.00;99.90;;;;;;6198569;23;20269;-78
2023/01/01 06:34:11;;;;;;;12.00;7.57;;;7.00;99.90;;;;;;6189332;23;20200;-78
2023/01/01 06:36:39;;;;;;;10.33;7.37;;;7.00;99.90;;;;;;6185719;23;20234;-76
2023/01/01 06:39:08;;;;;;;10.87;7.30;;;6.90;99.90;;;;;;6186881;23;20180;-76
2023/01/01 06:41:36;;;;;;;10.10;7.53;;;6.90;99.90;;;;;;6188391;23;20180;-77
2023/01/01 06:44:04;;;;;;;10.17;7.30;;;6.90;99.90;;;;;;6187968;23;20212;-76
2023/01/01 06:46:34;;;;;;;9.20;6.80;;;6.90;99.90;;;;;;6186477;23;20181;-78
2023/01/01 06:49:05;;;;;;;10.10;7.23;;;6.90;99.90;;;;;;6186288;23;20177;-77
2023/01/01 06:51:38;;;;;;;9.53;7.20;;;6.90;99.90;;;;;;6185673;23;20283;-77
2023/01/01 06:54:06;;;;;;;10.03;7.23;;;6.90;99.90;;;;;;6185557;23;20166;-77
2023/01/01 06:56:35;;;;;;;9.33;6.50;;;6.90;99.90;;;;;;6186256;23;20184;-76
2023/01/01 06:59:04;;;;;;;9.57;6.53;;;6.90;99.90;;;;;;6186711;23;20264;-76
2023/01/01 07:01:34;;;;;;;9.40;6.80;;;6.90;99.90;;;;;;6186170;23;20260;-76
2023/01/01 07:04:04;;;;;;;9.97;6.87;;;6.90;99.90;;;;;;6185795;23;20672;-74
2023/01/01 07:06:35;;;;;;;9.27;6.60;;;6.90;99.90;;;;;;6186119;23;20272;-75
2023/01/01 07:09:03;;;;;;;10.97;7.47;;;6.80;99.90;;;;;;6185741;23;20264;-78
2023/01/01 07:11:31;;;;;;;9.63;7.23;;;6.70;99.90;;;;;;6185981;23;20188;-77
2023/01/01 07:14:00;;;;;;;10.67;8.03;;;6.70;99.90;;;;;;6185393;23;20177;-77
2023/01/01 07:16:28;;;;;;;10.07;7.80;;;6.60;99.90;;;;;;6185843;23;20191;-77
2023/01/01 07:18:56;;;;;;;10.37;7.23;;;6.60;99.90;;;;;;6185478;23;20184;-76
2023/01/01 07:21:30;;;;;;;11.37;7.77;;;6.50;99.90;;;;;;6185617;23;20571;-76
2023/01/01 07:24:02;;;;;;;11.00;7.50;;;6.50;99.90;;;;;;6185484;23;20196;-76
2023/01/01 07:26:32;;;;;;;9.37;7.30;;;6.50;99.90;;;;;;6185296;23;20520;-77
2023/01/01 07:29:00;;;;;;;8.70;6.70;;;6.50;99.90;;;;;;6185730;23;20177;-76
2023/01/01 07:31:36;;;;;;;10.43;7.47;;;6.60;99.90;;;;;;6185731;23;20203;-78
2023/01/01 07:34:04;;;;;;;9.20;6.93;;;6.70;99.90;;;;;;6186432;23;20211;-77
2023/01/01 07:36:33;;;;;;;9.27;7.20;;;6.80;99.90;;;;;;6185772;23;20204;-76
2023/01/01 07:39:03;;;;;;;9.60;6.70;;;6.90;99.90;;;;;;6185820;23;20205;-75
2023/01/01 07:41:32;;;;;;;10.57;7.90;;;7.00;99.90;;;;;;6185867;23;20185;-75
2023/01/01 07:44:00;;;;;;;9.37;7.00;;;7.10;99.90;;;;;;6185264;23;20279;-75
2023/01/01 07:46:28;;;;;;;9.10;6.90;;;7.10;99.90;;;;;;6185653;23;20185;-75
2023/01/01 07:48:57;;;;;;;9.53;6.73;;;7.20;99.90;;;;;;6184912;23;20185;-78
2023/01/01 07:51:26;;;;;;;9.03;6.37;;;7.30;99.90;;;;;;6185687;23;20683;-76
2023/01/01 07:53:54;;;;;;;8.37;6.30;;;7.40;99.90;;;;;;6185332;23;20177;-76
2023/01/01 07:56:33;;;;;;;8.27;6.23;;;7.50;99.90;;;;;;6185792;23;20597;-76
2023/01/01 07:59:01;;;;;;;9.37;6.50;;;7.70;99.90;;;;;;6185655;23;20712;-77
2023/01/01 08:01:29;;;;;;;7.90;6.10;;;7.80;99.90;;;;;;6189002;23;20184;-76
2023/01/01 08:03:58;;;;;;;9.57;6.57;;;8.00;99.90;;;;;;6191984;23;20187;-75
2023/01/01 08:06:26;;;;;;;8.17;5.93;;;8.50;99.90;;;;;;6189759;23;20192;-77
2023/01/01 08:08:54;;;;;;;7.40;5.90;;;8.40;99.90;;;;;;6186207;23;20185;-77
2023/01/01 08:11:22;;;;;;;9.03;6.23;;;8.60;99.90;;;;;;6187433;23;20640;-76
2023/01/01 08:13:52;;;;;;;8.13;5.80;;;9.00;99.90;;;;;;6186225;23;20181;-77
2023/01/01 08:16:22;;;;;;;7.83;5.70;;;9.40;99.90;;;;;;6186075;23;20183;-77
2023/01/01 08:18:50;;;;;;;8.77;5.50;;;10.10;99.90;;;;;;6186072;23;20228;-77
2023/01/01 08:21:18;;;;;;;8.37;4.97;;;10.40;99.90;;;;;;6185824;23;20192;-77
2023/01/01 08:23:46;;;;;;;7.03;4.80;;;11.00;99.90;;;;;;6186986;23;20181;-77
2023/01/01 08:26:16;;;;;;;6.43;4.83;;;11.50;99.90;;;;;;6187422;23;20516;-76
2023/01/01 08:28:51;;;;;;;6.80;4.40;;;11.90;99.90;;;;;;6186348;23;20650;-78
2023/01/01 08:31:24;;;;;;;7.53;4.53;;;12.50;99.90;;;;;;6186271;23;20598;-78
2023/01/01 08:33:52;;;;;;;5.93;4.00;;;13.10;99.90;;;;;;6185053;23;20181;-78
2023/01/01 08:36:20;;;;;;;5.03;3.80;;;13.90;99.90;;;;;;6186532;23;20165;-79
2023/01/01 08:38:49;;;;;;;4.93;3.70;;;14.40;99.90;;;;;;6186770;23;20267;-77
2023/01/01 08:41:22;;;;;;;5.53;3.70;;;14.90;99.90;;;;;;6184111;23;20519;-78
2023/01/01 08:43:58;;;;;;;4.57;3.83;;;15.80;99.90;;;;;;6185211;23;20204;-79
2023/01/01 08:46:26;;;;;;;5.50;4.30;;;16.10;99.50;;;;;;6187163;23;20185;-78
2023/01/01 08:48:54;;;;;;;4.67;3.60;;;16.60;99.90;;;;;;6186964;23;20185;-78
2023/01/01 08:51:25;;;;;;;6.03;3.57;;;17.00;96.70;;;;;;6184613;23;20212;-80
2023/01/01 08:53:53;;;;;;;5.43;3.23;;;17.30;95.50;;;;;;6184458;23;20562;-79
2023/01/01 08:56:21;;;;;;;4.13;3.50;;;17.80;94.30;;;;;;6185403;23;20197;-79
2023/01/01 08:58:49;;;;;;;3.73;3.20;;;18.10;92.60;;;;;;6185620;23;20387;-81
2023/01/01 09:01:20;;;;;;;5.97;3.27;;;18.50;92.70;;;;;;6185342;23;20181;-79
2023/01/01 09:03:49;;;;;;;4.07;3.20;;;17.90;91.90;;;;;;6185311;23;20626;-80
2023/01/01 09:06:17;;;;;;;4.13;3.50;;;16.90;92.90;;;;;;6185506;23;20207;-79
2023/01/01 09:08:46;;;;;;;3.67;3.10;;;16.20;94.20;;;;;;6185867;23;20180;-79
2023/01/01 09:11:22;;;;;;;4.50;3.40;;;15.60;95.40;;;;;;6185920;23;20268;-79
2023/01/01 09:13:51;;;;;;;4.87;3.60;;;15.20;96.70;;;;;;6185237;23;20180;-78
2023/01/01 09:16:22;;;;;;;4.60;3.87;;;15.00;97.30;;;;;;6184530;23;20193;-77
2023/01/01 09:18:50;;;;;;;4.80;3.70;;;14.60;97.90;;;;;;6184126;23;20267;-77
2023/01/01 09:21:18;;;;;;;4.37;3.57;;;14.50;98.40;;;;;;6184989;23;20187;-79
2023/01/01 09:23:46;;;;;;;4.37;3.40;;;14.40;99.60;;;;;;6185531;23;20173;-77
2023/01/01 09:26:17;;;;;;;5.23;3.33;;;14.20;99.80;;;;;;6183341;23;20275;-79
2023/01/01 09:28:45;;;;;;;4.70;3.37;;;14.10;99.90;;;;;;6183691;23;20237;-78
2023/01/01 09:31:13;;;;;;;5.97;3.77;;;14.00;99.90;;;;;;6184129;23;20245;-78
2023/01/01 09:33:43;;;;;;;6.33;4.53;;;13.80;99.90;;;;;;6182972;23;20208;-78
2023/01/01 09:36:16;;;;;;;6.30;4.47;;;13.80;99.90;;;;;;6184362;23;20260;-78
2023/01/01 09:38:49;;;;;;;7.07;4.87;;;13.60;99.90;;;;;;6183357;23;20554;-78
2023/01/01 09:41:25;;;;;;;5.73;4.60;;;13.70;99.90;;;;;;6184128;23;20265;-79
2023/01/01 09:44:02;;;;;;;8.83;4.90;;;13.60;99.90;;;;;;6183331;23;20180;-79
2023/01/01 09:46:30;;;;;;;6.90;4.50;;;13.60;99.90;;;;;;6184018;23;20645;-77
2023/01/01 09:49:28;;;;;;;5.47;4.57;;;13.70;99.90;;;;;;6183668;23;20191;-79
2023/01/01 09:52:00;;;;;;;5.10;3.50;;;13.80;99.90;;;;;;6182823;23;20193;-80
2023/01/01 09:54:32;;;;;;;4.63;3.70;;;13.80;99.90;;;;;;6184057;23;20169;-79
2023/01/01 09:57:02;;;;;;;4.20;3.27;;;13.70;99.90;;;;;;6183707;23;20181;-77
2023/01/01 09:59:31;;;;;;;4.43;3.00;;;13.90;99.90;;;;;;6183764;23;20192;-78
2023/01/01 10:02:07;;;;;;;4.17;3.23;;;14.00;99.90;;;;;;6184016;23;20239;-78
2023/01/01 10:04:50;;;;;;;6.20;3.93;;;14.10;99.90;;;;;;6184220;23;20413;-78
2023/01/01 10:07:26;;;;;;;4.27;3.40;;;14.20;99.90;;;;;;6184623;23;20256;-78
2023/01/01 10:10:02;;;;;;;4.50;3.30;;;14.30;99.90;;;;;;6184376;23;20487;-78
2023/01/01 10:12:37;;;;;;;5.57;3.10;;;14.50;99.90;;;;;;6185691;23;20169;-77
2023/01/01 10:15:13;;;;;;;4.40;3.30;;;14.90;99.90;;;;;;6187541;23;20231;-80
2023/01/01 10:17:45;;;;;;;4.83;3.63;;;14.90;99.90;;;;;;6186261;23;20173;-80
2023/01/01 10:20:21;;;;;;;4.47;3.77;;;15.40;99.90;;;;;;6186658;23;20221;-81
2023/01/01 10:22:53;;;;;;;3.73;2.90;;;16.00;99.90;;;;;;6186406;23;20597;-80
2023/01/01 10:25:24;;;;;;;3.67;2.80;;;16.70;99.90;;;;;;6186065;23;20180;-82
2023/01/01 10:27:58;;;;;;;3.17;2.40;;;17.60;99.90;;;;;;6186572;23;20188;-80
2023/01/01 10:30:28;;;;;;;3.07;2.20;;;18.20;98.60;;;;;;6186822;23;20640;-79
2023/01/01 10:32:57;;;;;;;4.00;2.50;;;19.10;97.20;;;;;;6185618;23;20217;-80
2023/01/01 10:35:32;;;;;;;2.43;2.07;;;20.00;95.40;;;;;;6185957;23;20184;-81
2023/01/01 10:38:01;;;;;;;2.73;1.93;;;21.00;94.00;;;;;;6185991;23;20188;-82
2023/01/01 10:40:30;;;;;;;1.80;1.70;;;22.50;91.60;;;;;;6189843;23;20267;-82
2023/01/01 10:43:01;;;;;;;2.25;1.60;;;22.80;88.70;;;;;;6190210;23;20244;-81
2023/01/01 10:45:31;;;;;;;2.58;1.80;;;22.50;86.50;;;;;;6189302;23;20206;-82
2023/01/01 10:48:13;;;;;;;2.38;1.90;;;22.50;87.10;;;;;;6185157;23;20180;-81
2023/01/01 10:50:46;;;;;;;1.60;1.50;;;23.20;83.40;;;;;;6186754;23;20179;-81
2023/01/01 10:53:23;;;;;;;2.92;1.73;;;23.30;82.80;;;;;;6186274;23;20180;-80
2023/01/01 10:56:00;;;;;;;2.38;1.80;;;23.20;81.60;;;;;;6186266;23;20267;-82
2023/01/01 10:58:38;;;;;;;1.80;1.70;;;23.50;81.70;;;;;;6187432;23;20251;-82
2023/01/01 11:01:08;;;;;;;1.70;1.60;;;24.20;80.50;;;;;;6186550;23;20211;-82
2023/01/01 11:03:37;;;;;;;2.70;2.05;;;23.50;78.20;;;;;;6186484;23;20677;-83
2023/01/01 11:06:15;;;;;;;2.63;1.73;;;23.20;80.00;;;;;;6187205;23;20188;-83
2023/01/01 11:08:49;;;;;;;2.78;1.70;;;23.40;80.90;;;;;;6185759;23;20219;-82
2023/01/01 11:11:28;;;;;;;1.90;1.67;;;23.60;80.30;;;;;;6186276;23;20220;-81
2023/01/01 11:13:59;;;;;;;1.85;1.75;;;24.40;77.70;;;;;;6186354;23;20505;-81
2023/01/01 11:16:28;;;;;;;2.92;2.03;;;23.30;77.80;;;;;;6186131;23;20212;-82
2023/01/01 11:19:04;;;;;;;2.08;1.90;;;23.00;78.70;;;;;;6186514;23;20185;-82
2023/01/01 11:21:35;;;;;;;2.40;2.10;;;22.80;79.90;;;;;;6186908;23;20219;-80
2023/01/01 11:24:18;;;;;;;3.03;2.00;;;23.30;79.80;;;;;;6187111;23;20177;-81
2023/01/01 11:26:51;;;;;;;2.10;1.90;;;23.30;79.80;;;;;;6187429;23;20161;-85
2023/01/01 11:29:26;;;;;;;3.03;1.80;;;23.10;79.90;;;;;;6185791;23;20200;-83
2023/01/01 11:31:56;;;;;;;3.63;2.00;;;24.00;79.10;;;;;;6186214;23;20501;-83
2023/01/01 11:34:36;;;;;;;3.55;1.80;;;23.40;78.50;;;;;;6186075;23;20260;-84
2023/01/01 11:37:23;;;;;;;3.25;1.98;;;23.30;79.50;;;;;;6186980;23;20189;-84
2023/01/01 11:39:53;;;;;;;2.00;1.80;;;23.50;79.00;;;;;;6189207;23;20567;-82
2023/01/01 11:42:27;;;;;;;3.88;2.03;;;23.00;80.10;;;;;;6190111;23;20188;-84
2023/01/01 11:44:58;;;;;;;2.40;2.20;;;22.70;79.70;;;;;;6203115;23;20746;-83
2023/01/01 11:47:29;;;;;;;4.13;2.05;;;22.90;81.50;;;;;;6193562;23;20200;-81
2023/01/01 11:50:02;;;;;;;3.08;2.08;;;22.20;80.70;;;;;;6196570;23;20185;-81
2023/01/01 11:52:39;;;;;;;2.53;1.92;;;21.70;82.60;;;;;;6187712;23;20188;-81
2023/01/01 11:55:20;;;;;;;3.00;1.80;;;21.30;83.40;;;;;;6187501;23;20185;-79
2023/01/01 11:57:59;;;;;;;2.80;1.90;;;21.40;84.50;;;;;;6186383;23;20193;-80
2023/01/01 12:00:31;;;;;;;2.00;1.80;;;20.60;86.20;;;;;;6185621;23;20176;-80
2023/01/01 12:03:04;;;;;;;2.67;1.97;;;20.00;87.60;;;;;;6186628;23;20510;-79
2023/01/01 12:05:42;;;;;;;3.60;2.00;;;19.70;89.50;;;;;;6185798;23;20188;-79
2023/01/01 12:08:15;;;;;;;3.50;2.00;;;19.20;90.50;;;;;;6189054;23;20200;-79
2023/01/01 12:10:50;;;;;;;2.60;2.03;;;19.10;90.80;;;;;;6187362;23;20180;-80
2023/01/01 12:13:23;;;;;;;3.43;2.30;;;19.10;90.90;;;;;;6186766;23;20181;-79
2023/01/01 12:16:00;;;;;;;3.53;2.30;;;18.80;91.00;;;;;;6186065;23;20236;-79
2023/01/01 12:18:35;;;;;;;3.60;2.10;;;18.70;91.60;;;;;;6186656;23;20169;-79
2023/01/01 12:21:10;;;;;;;4.10;2.37;;;18.40;92.40;;;;;;6185970;23;20176;-78
2023/01/01 12:23:44;;;;;;;2.60;2.10;;;18.30;92.80;;;;;;6185625;23;20180;-79
2023/01/01 12:26:19;;;;;;;3.17;2.10;;;18.40;92.80;;;;;;6187463;23;20180;-80
2023/01/01 12:29:10;;;;;;;2.67;2.20;;;18.20;93.40;;;;;;6186827;23;20169;-77
2023/01/01 12:31:48;;;;;;;3.77;2.80;;;18.30;93.10;;;;;;6185366;23;20201;-78
2023/01/01 12:34:22;;;;;;;4.23;3.17;;;18.20;92.60;;;;;;6185576;23;20538;-78
2023/01/01 12:36:59;;;;;;;4.03;2.53;;;18.30;93.20;;;;;;6186496;23;20211;-79
2023/01/01 12:40:08;;;;;;;4.50;1.80;;;18.40;93.60;;;;;;6185796;23;20176;-80
2023/01/01 12:42:58;;;;;;;2.93;1.70;;;18.40;93.10;;;;;;6185749;23;20181;-77
2023/01/01 12:45:45;;;;;;;4.10;2.30;;;18.50;92.90;;;;;;6184910;23;20181;-79
2023/01/01 12:48:41;;;;;;;4.23;1.90;;;18.30;92.60;;;;;;6184419;23;20169;-77
2023/01/01 12:51:21;;;;;;;2.17;1.80;;;18.10;92.90;;;;;;6184028;23;20189;-78
2023/01/01 12:53:59;;;;;;;3.37;2.00;;;18.10;93.40;;;;;;6185822;23;20252;-79
2023/01/01 12:56:35;;;;;;;4.43;1.90;;;18.10;93.10;;;;;;6184894;23;20187;-79
2023/01/01 12:59:07;;;;;;;4.97;1.87;;;18.20;92.50;;;;;;6189888;23;20185;-78
2023/01/01 13:01:37;;;;;;;2.93;1.87;;;18.20;93.00;;;;;;6186213;23;20602;-79
2023/01/01 13:04:07;;;;;;;2.53;1.90;;;18.30;93.00;;;;;;6184989;23;20220;-79
2023/01/01 13:06:41;;;;;;;3.63;1.70;;;18.20;93.10;;;;;;6185057;23;20177;-78
2023/01/01 13:09:15;;;;;;;2.23;1.90;;;18.10;93.20;;;;;;6186362;23;20241;-78
2023/01/01 13:11:47;;;;;;;2.40;1.80;;;18.10;93.30;;;;;;6186128;23;20580;-79
2023/01/01 13:14:17;;;;;;;5.63;1.60;;;18.00;93.60;;;;;;6186151;23;20161;-79
2023/01/01 13:16:51;;;;;;;3.60;1.70;;;17.90;93.90;;;;;;6185943;23;20181;-77
2023/01/01 13:19:30;;;;;;;2.20;1.80;;;17.90;93.60;;;;;;6187177;23;20169;-78